Time;durP1;ratioP1;P1;durP2;ratioP2;P2;SDS_P1;SDS_P2;PMS_P1;PMS_P2;Temp;Humidity;BMP_temperature;BMP_pressure;BME280_temperature;BME280_humidity;BME280_pressure;Samples;Min_cycle;Max_cycle;Signal;HPM_P1;HPM_P2
2023/07/18 00:01:28;;;;;;;1.60;1.50;;;;;;;;;;5034062;28;20210;-26
2023/07/18 00:03:55;;;;;;;2.10;1.90;;;;;;;;;;5030938;28;20203;-25
2023/07/18 00:06:24;;;;;;;4.40;1.98;;;;;;;;;;5034477;28;20230;-28
2023/07/18 00:08:51;;;;;;;2.47;1.70;;;;;;;;;;5034333;28;20272;-26
2023/07/18 00:11:22;;;;;;;4.17;2.07;;;;;;;;;;5025534;28;20203;-26
2023/07/18 00:13:49;;;;;;;2.47;1.93;;;;;;;;;;5028048;28;20240;-27
2023/07/18 00:16:16;;;;;;;1.63;1.37;;;;;;;;;;5032408;28;20211;-27
2023/07/18 00:18:43;;;;;;;4.53;1.80;;;;;;;;;;5033820;28;20230;-27
2023/07/18 00:21:12;;;;;;;2.53;1.73;;;;;;;;;;5023681;28;20222;-28
2023/07/18 00:23:39;;;;;;;2.53;1.80;;;;;;;;;;5028010;28;20252;-27
2023/07/18 00:26:06;;;;;;;4.07;1.83;;;;;;;;;;5022208;28;20206;-26
2023/07/18 00:28:34;;;;;;;1.87;1.77;;;;;;;;;;5025193;28;20225;-27
2023/07/18 00:31:02;;;;;;;2.37;1.90;;;;;;;;;;5031207;28;20202;-27
2023/07/18 00:33:29;;;;;;;1.80;1.70;;;;;;;;;;5030547;28;20210;-26
2023/07/18 00:35:56;;;;;;;5.87;1.87;;;;;;;;;;5026168;28;20214;-27
2023/07/18 00:38:23;;;;;;;1.83;1.60;;;;;;;;;;5030805;28;20218;-30
2023/07/18 00:40:51;;;;;;;1.83;1.70;;;;;;;;;;5022497;28;20230;-24
2023/07/18 00:43:18;;;;;;;2.10;1.90;;;;;;;;;;5024421;28;20209;-27
2023/07/18 00:45:49;;;;;;;5.47;2.27;;;;;;;;;;5031333;28;20194;-25
2023/07/18 00:48:16;;;;;;;2.90;1.60;;;;;;;;;;5030958;28;20210;-26
2023/07/18 00:50:43;;;;;;;1.93;1.60;;;;;;;;;;5023443;28;20206;-26
2023/07/18 00:53:11;;;;;;;1.77;1.67;;;;;;;;;;5022702;28;20202;-24
2023/07/18 00:55:38;;;;;;;3.33;2.17;;;;;;;;;;5024185;28;20217;-28
2023/07/18 00:58:05;;;;;;;2.43;1.80;;;;;;;;;;5023419;28;20233;-27
2023/07/18 01:00:32;;;;;;;2.30;1.53;;;;;;;;;;5027009;28;20234;-27
2023/07/18 01:03:02;;;;;;;1.83;1.67;;;;;;;;;;5019749;28;20233;-24
2023/07/18 01:05:29;;;;;;;2.20;1.60;;;;;;;;;;5022242;28;20198;-26
2023/07/18 01:07:57;;;;;;;3.17;2.20;;;;;;;;;;5029133;28;20214;-27
2023/07/18 01:10:25;;;;;;;2.70;1.63;;;;;;;;;;5021308;28;20206;-25
2023/07/18 01:12:52;;;;;;;3.63;2.00;;;;;;;;;;5029051;28;20207;-27
2023/07/18 01:15:20;;;;;;;2.43;1.80;;;;;;;;;;5030536;28;20198;-25
2023/07/18 01:17:48;;;;;;;1.90;1.60;;;;;;;;;;5027660;28;20262;-27
2023/07/18 01:20:18;;;;;;;2.60;1.73;;;;;;;;;;5025022;28;20236;-27
2023/07/18 01:22:48;;;;;;;2.43;1.57;;;;;;;;;;5030032;28;20206;-28
2023/07/18 01:25:16;;;;;;;4.27;1.97;;;;;;;;;;5027509;28;20222;-30
2023/07/18 01:27:43;;;;;;;2.07;1.70;;;;;;;;;;5025738;28;20206;-27
2023/07/18 01:30:11;;;;;;;1.97;1.40;;;;;;;;;;5030276;28;20232;-26
2023/07/18 01:32:38;;;;;;;2.50;1.90;;;;;;;;;;5030289;28;20313;-26
2023/07/18 01:35:08;;;;;;;5.07;2.40;;;;;;;;;;5017682;28;20202;-27
2023/07/18 01:37:35;;;;;;;2.77;2.10;;;;;;;;;;5016971;28;20214;-27
2023/07/18 01:40:05;;;;;;;2.83;1.60;;;;;;;;;;5025937;28;20230;-28
2023/07/18 01:42:32;;;;;;;1.80;1.47;;;;;;;;;;5015136;28;20203;-28
2023/07/18 01:44:59;;;;;;;1.83;1.70;;;;;;;;;;5028289;28;20259;-24
2023/07/18 01:47:26;;;;;;;3.53;1.90;;;;;;;;;;5029624;28;20270;-28
2023/07/18 01:49:54;;;;;;;2.93;2.23;;;;;;;;;;5018664;28;20222;-27
2023/07/18 01:52:21;;;;;;;3.17;1.97;;;;;;;;;;5027905;28;20206;-26
2023/07/18 01:54:48;;;;;;;2.03;1.83;;;;;;;;;;5029635;28;20220;-29
2023/07/18 01:57:16;;;;;;;5.70;2.07;;;;;;;;;;5025198;28;20205;-31
2023/07/18 01:59:43;;;;;;;3.50;1.87;;;;;;;;;;5029250;28;20223;-26
2023/07/18 02:02:10;;;;;;;2.67;2.10;;;;;;;;;;5029916;28;20209;-25
2023/07/18 02:04:38;;;;;;;3.17;1.90;;;;;;;;;;5029545;28;20219;-26
2023/07/18 02:07:05;;;;;;;2.23;1.63;;;;;;;;;;5012375;28;20218;-27
2023/07/18 02:09:32;;;;;;;3.37;1.90;;;;;;;;;;5029025;28;20218;-29
2023/07/18 02:11:59;;;;;;;4.13;2.10;;;;;;;;;;5021113;28;20213;-30
2023/07/18 02:14:28;;;;;;;1.97;1.60;;;;;;;;;;5029030;28;20209;-29
2023/07/18 02:16:55;;;;;;;2.23;1.80;;;;;;;;;;5028807;28;20214;-28
2023/07/18 02:19:23;;;;;;;1.57;1.47;;;;;;;;;;5025449;28;20234;-29
2023/07/18 02:21:50;;;;;;;2.97;1.57;;;;;;;;;;5013706;28;20230;-24
2023/07/18 02:24:17;;;;;;;2.80;1.87;;;;;;;;;;5029113;28;20216;-26
2023/07/18 02:26:44;;;;;;;3.37;1.73;;;;;;;;;;5023763;28;20199;-25
2023/07/18 02:29:13;;;;;;;2.53;1.53;;;;;;;;;;5023108;28;20235;-23
2023/07/18 02:31:41;;;;;;;3.07;1.77;;;;;;;;;;5029169;28;20266;-26
2023/07/18 02:34:09;;;;;;;2.23;1.90;;;;;;;;;;5025665;28;20209;-28
2023/07/18 02:36:36;;;;;;;2.57;2.07;;;;;;;;;;5024346;28;20271;-24
2023/07/18 02:39:06;;;;;;;2.67;1.70;;;;;;;;;;5029009;28;20233;-27
2023/07/18 02:41:33;;;;;;;2.53;2.13;;;;;;;;;;5016899;28;20225;-29
2023/07/18 02:44:00;;;;;;;2.00;1.80;;;;;;;;;;5022157;28;20206;-26
2023/07/18 02:46:27;;;;;;;3.50;1.90;;;;;;;;;;5028850;28;20213;-22
2023/07/18 02:48:56;;;;;;;3.40;1.87;;;;;;;;;;5029113;28;20226;-24
2023/07/18 02:51:23;;;;;;;3.53;2.77;;;;;;;;;;5318093;22;20707;-27
2023/07/18 02:53:50;;;;;;;3.60;2.30;;;;;;;;;;5092502;28;20228;-27
2023/07/18 02:56:18;;;;;;;2.20;1.80;;;;;;;;;;5098410;28;20237;-24
2023/07/18 02:58:45;;;;;;;3.13;2.03;;;;;;;;;;5090851;28;20228;-30
2023/07/18 03:01:12;;;;;;;2.30;2.07;;;;;;;;;;5069086;28;20230;-26
2023/07/18 03:03:40;;;;;;;1.90;1.60;;;;;;;;;;5069387;28;20560;-30
2023/07/18 03:06:08;;;;;;;4.07;1.90;;;;;;;;;;5059443;28;20302;-27
2023/07/18 03:08:36;;;;;;;2.60;1.90;;;;;;;;;;5069320;28;20218;-27
2023/07/18 03:11:03;;;;;;;2.13;1.73;;;;;;;;;;5070516;28;20658;-26
2023/07/18 03:13:30;;;;;;;3.17;1.70;;;;;;;;;;5063529;28;20199;-27
2023/07/18 03:15:58;;;;;;;2.53;1.90;;;;;;;;;;5077389;28;20284;-28
2023/07/18 03:18:25;;;;;;;8.97;1.90;;;;;;;;;;5069238;28;20237;-28
2023/07/18 03:20:52;;;;;;;1.70;1.43;;;;;;;;;;5060776;28;20224;-25
2023/07/18 03:23:21;;;;;;;2.63;2.00;;;;;;;;;;5078542;28;20211;-29
2023/07/18 03:25:48;;;;;;;3.50;1.83;;;;;;;;;;5076687;28;20214;-26
2023/07/18 03:28:15;;;;;;;1.90;1.80;;;;;;;;;;5066486;28;20222;-28
2023/07/18 03:30:42;;;;;;;1.97;1.73;;;;;;;;;;5081411;28;20200;-26
2023/07/18 03:33:10;;;;;;;3.63;1.80;;;;;;;;;;5070486;28;20200;-27
2023/07/18 03:35:37;;;;;;;1.97;1.77;;;;;;;;;;5075303;28;20209;-25
2023/07/18 03:38:04;;;;;;;3.20;1.63;;;;;;;;;;5075481;28;20206;-29
2023/07/18 03:40:33;;;;;;;2.27;1.83;;;;;;;;;;5065496;28;20232;-28
2023/07/18 03:43:00;;;;;;;3.87;2.00;;;;;;;;;;5076820;28;20204;-25
2023/07/18 03:45:28;;;;;;;2.37;1.70;;;;;;;;;;5093150;28;20200;-27
2023/07/18 03:47:56;;;;;;;3.57;2.20;;;;;;;;;;5092737;28;20208;-25
2023/07/18 03:50:23;;;;;;;2.83;1.80;;;;;;;;;;5071175;28;20574;-28
2023/07/18 03:52:50;;;;;;;5.03;3.20;;;;;;;;;;5073115;28;20212;-28
2023/07/18 03:55:23;;;;;;;1.77;1.67;;;;;;;;;;5064729;28;20215;-28
2023/07/18 03:57:52;;;;;;;4.87;1.87;;;;;;;;;;5070381;28;20201;-25
2023/07/18 04:00:21;;;;;;;2.60;2.10;;;;;;;;;;5074322;28;20223;-26
2023/07/18 04:02:50;;;;;;;3.23;2.03;;;;;;;;;;5074577;28;20214;-27
2023/07/18 04:05:18;;;;;;;2.10;2.00;;;;;;;;;;5068168;28;20665;-27
2023/07/18 04:07:45;;;;;;;2.90;1.83;;;;;;;;;;5091396;28;20722;-28
2023/07/18 04:10:12;;;;;;;4.27;1.90;;;;;;;;;;5072515;28;20701;-25
2023/07/18 04:12:40;;;;;;;4.83;1.80;;;;;;;;;;5083818;28;20215;-28
2023/07/18 04:15:09;;;;;;;2.90;1.80;;;;;;;;;;5077659;28;20200;-28
2023/07/18 04:17:38;;;;;;;2.00;1.80;;;;;;;;;;5094290;28;20210;-27
2023/07/18 04:20:07;;;;;;;2.40;2.20;;;;;;;;;;5068921;28;20226;-26
2023/07/18 04:22:34;;;;;;;3.57;1.77;;;;;;;;;;5083921;28;20225;-25
2023/07/18 04:25:01;;;;;;;2.13;1.77;;;;;;;;;;5074123;28;20811;-25
2023/07/18 04:27:28;;;;;;;2.93;2.03;;;;;;;;;;5071188;28;20652;-25
2023/07/18 04:29:56;;;;;;;3.83;2.13;;;;;;;;;;5073322;28;20228;-24
2023/07/18 04:32:24;;;;;;;3.00;1.80;;;;;;;;;;5053781;28;20205;-24
2023/07/18 04:34:51;;;;;;;3.90;2.23;;;;;;;;;;5054097;28;20215;-27
2023/07/18 04:37:18;;;;;;;2.77;2.07;;;;;;;;;;5065877;28;20203;-25
2023/07/18 04:39:46;;;;;;;3.10;2.07;;;;;;;;;;5070192;28;20274;-25
2023/07/18 04:42:13;;;;;;;2.33;1.83;;;;;;;;;;5060468;28;20689;-28
2023/07/18 04:44:40;;;;;;;2.47;1.80;;;;;;;;;;5085042;28;20200;-24
2023/07/18 04:47:08;;;;;;;2.97;1.90;;;;;;;;;;5072980;28;20707;-27
2023/07/18 04:49:37;;;;;;;4.80;2.60;;;;;;;;;;5069144;28;20226;-26
2023/07/18 04:52:04;;;;;;;5.43;2.87;;;;;;;;;;5067387;28;20212;-28
2023/07/18 04:54:31;;;;;;;3.63;2.73;;;;;;;;;;5080073;28;20207;-25
2023/07/18 04:56:58;;;;;;;4.50;2.77;;;;;;;;;;5070961;28;20200;-25
2023/07/18 04:59:26;;;;;;;4.00;2.40;;;;;;;;;;5075872;28;20222;-27
2023/07/18 05:01:54;;;;;;;5.43;2.63;;;;;;;;;;5073535;28;20221;-24
2023/07/18 05:04:21;;;;;;;3.13;2.20;;;;;;;;;;5065420;28;20866;-27
2023/07/18 05:06:49;;;;;;;2.70;2.37;;;;;;;;;;5084008;28;20204;-27
2023/07/18 05:09:27;;;;;;;4.33;2.40;;;;;;;;;;5081587;28;20223;-29
2023/07/18 05:11:55;;;;;;;3.73;2.50;;;;;;;;;;5063042;28;20262;-28
2023/07/18 05:14:22;;;;;;;4.13;2.20;;;;;;;;;;5082761;28;20214;-27
2023/07/18 05:16:49;;;;;;;2.37;2.17;;;;;;;;;;5093091;28;20299;-27
2023/07/18 05:19:16;;;;;;;3.90;2.50;;;;;;;;;;5082771;28;20220;-27
2023/07/18 05:21:44;;;;;;;2.37;2.20;;;;;;;;;;5081220;28;20229;-25
2023/07/18 05:24:12;;;;;;;8.33;2.60;;;;;;;;;;5085239;28;20207;-27
2023/07/18 05:26:39;;;;;;;3.43;2.20;;;;;;;;;;5067915;28;20204;-26
2023/07/18 05:29:06;;;;;;;4.23;2.77;;;;;;;;;;5066397;28;20220;-26
2023/07/18 05:31:34;;;;;;;4.77;2.53;;;;;;;;;;5088134;28;20198;-27
2023/07/18 05:34:01;;;;;;;3.17;2.83;;;;;;;;;;5080871;28;20211;-32
2023/07/18 05:36:28;;;;;;;2.80;2.23;;;;;;;;;;5082755;28;20200;-31
2023/07/18 05:38:55;;;;;;;4.63;3.30;;;;;;;;;;5075141;28;20562;-30
2023/07/18 05:41:24;;;;;;;3.67;3.10;;;;;;;;;;5064139;28;20222;-28
2023/07/18 05:43:51;;;;;;;3.87;3.03;;;;;;;;;;5065177;28;20643;-28
2023/07/18 05:46:18;;;;;;;3.57;3.03;;;;;;;;;;5068716;28;20257;-30
2023/07/18 05:48:45;;;;;;;4.37;3.80;;;;;;;;;;5072250;28;20326;-31
2023/07/18 05:51:12;;;;;;;4.20;3.40;;;;;;;;;;5071691;28;20216;-32
2023/07/18 05:53:40;;;;;;;5.17;3.53;;;;;;;;;;5060686;28;20213;-31
2023/07/18 05:56:07;;;;;;;4.23;3.40;;;;;;;;;;5065158;28;20212;-28
2023/07/18 05:58:36;;;;;;;6.47;4.33;;;;;;;;;;5074115;28;20228;-30
2023/07/18 06:01:03;;;;;;;4.60;3.50;;;;;;;;;;5079361;28;20197;-29
2023/07/18 06:03:30;;;;;;;4.63;3.77;;;;;;;;;;5065401;28;20212;-30
2023/07/18 06:05:57;;;;;;;7.53;4.03;;;;;;;;;;5077744;28;20291;-29
2023/07/18 06:08:24;;;;;;;4.40;3.80;;;;;;;;;;5072264;28;20221;-28
2023/07/18 06:10:56;;;;;;;5.05;3.67;;;;;;;;;;5065586;28;20218;-30
2023/07/18 06:13:24;;;;;;;6.25;3.42;;;;;;;;;;5080089;28;20205;-31
2023/07/18 06:15:52;;;;;;;6.40;3.17;;;;;;;;;;5082936;28;20228;-29
2023/07/18 06:18:19;;;;;;;4.63;3.30;;;;;;;;;;5071787;28;20225;-29
2023/07/18 06:20:46;;;;;;;3.90;3.27;;;;;;;;;;5061860;28;20213;-30
2023/07/18 06:23:31;;;;;;;4.30;3.25;;;;;;;;;;5079803;28;20219;-30
2023/07/18 06:25:58;;;;;;;7.30;3.03;;;;;;;;;;5069197;28;20540;-31
2023/07/18 06:28:25;;;;;;;5.73;2.83;;;;;;;;;;5060334;28;20220;-30
2023/07/18 06:30:56;;;;;;;5.33;3.10;;;;;;;;;;5071887;28;20197;-28
2023/07/18 06:33:24;;;;;;;4.77;2.40;;;;;;;;;;5066443;28;20205;-30
2023/07/18 06:35:55;;;;;;;5.43;3.00;;;;;;;;;;5069998;28;20263;-28
2023/07/18 06:38:22;;;;;;;4.32;2.60;;;;;;;;;;5079572;28;20224;-32
2023/07/18 06:40:50;;;;;;;5.30;2.40;;;;;;;;;;5066736;28;20704;-28
2023/07/18 06:43:17;;;;;;;3.72;2.70;;;;;;;;;;5067546;28;20228;-31
2023/07/18 06:45:44;;;;;;;3.80;2.35;;;;;;;;;;5087653;28;20196;-30
2023/07/18 06:48:13;;;;;;;2.38;1.88;;;;;;;;;;5091725;28;20208;-29
2023/07/18 06:50:44;;;;;;;2.72;1.95;;;;;;;;;;5069673;28;20217;-28
2023/07/18 06:53:11;;;;;;;3.47;2.03;;;;;;;;;;5079041;28;20185;-27
2023/07/18 06:55:41;;;;;;;2.63;2.10;;;;;;;;;;5070750;28;20267;-30
2023/07/18 06:58:09;;;;;;;2.78;2.08;;;;;;;;;;5070378;28;20208;-27
2023/07/18 07:00:36;;;;;;;2.45;1.90;;;;;;;;;;5083015;28;20200;-27
2023/07/18 07:03:03;;;;;;;3.35;2.20;;;;;;;;;;5075501;28;20225;-31
2023/07/18 07:05:32;;;;;;;3.03;2.00;;;;;;;;;;5064846;28;20206;-32
2023/07/18 07:07:59;;;;;;;2.83;1.88;;;;;;;;;;5074692;28;20209;-28
2023/07/18 07:10:26;;;;;;;2.80;2.05;;;;;;;;;;5069574;28;20556;-29
2023/07/18 07:12:54;;;;;;;4.00;2.00;;;;;;;;;;5070800;28;20204;-30
2023/07/18 07:15:21;;;;;;;3.08;2.20;;;;;;;;;;5080224;28;20203;-30
2023/07/18 07:17:48;;;;;;;2.78;1.85;;;;;;;;;;5074833;28;20211;-29
2023/07/18 07:20:15;;;;;;;4.85;2.15;;;;;;;;;;5073219;28;20318;-27
2023/07/18 07:22:46;;;;;;;2.67;1.77;;;;;;;;;;5088008;28;20211;-31
2023/07/18 07:25:14;;;;;;;4.43;1.90;;;;;;;;;;5064199;28;20208;-31
2023/07/18 07:27:43;;;;;;;2.42;1.67;;;;;;;;;;5064200;28;20201;-28
2023/07/18 07:30:15;;;;;;;2.95;1.90;;;;;;;;;;5078516;28;20230;-29
2023/07/18 07:32:42;;;;;;;2.33;1.80;;;;;;;;;;5095502;28;20574;-30
2023/07/18 07:35:09;;;;;;;3.88;1.73;;;;;;;;;;5077537;28;20203;-28
2023/07/18 07:37:40;;;;;;;2.25;1.90;;;;;;;;;;5069778;28;20208;-31
2023/07/18 07:40:11;;;;;;;2.05;1.50;;;;;;;;;;5070224;28;20236;-29
2023/07/18 07:42:38;;;;;;;2.88;1.40;;;;;;;;;;5068138;28;20237;-31
2023/07/18 07:45:06;;;;;;;2.67;1.80;;;;;;;;;;5085018;28;20269;-28
2023/07/18 07:47:33;;;;;;;3.55;1.70;;;;;;;;;;5094649;28;20292;-31
2023/07/18 07:50:01;;;;;;;3.50;1.42;;;;;;;;;;5075987;28;20323;-29
2023/07/18 07:52:28;;;;;;;2.25;1.42;;;;;;;;;;5070543;28;20292;-33
2023/07/18 07:54:55;;;;;;;1.77;1.27;;;;;;;;;;5074964;28;20201;-31
2023/07/18 07:57:24;;;;;;;4.05;1.65;;;;;;;;;;5071315;28;20228;-30
2023/07/18 07:59:52;;;;;;;2.88;1.98;;;;;;;;;;5091713;28;20227;-32
2023/07/18 08:02:20;;;;;;;1.92;1.38;;;;;;;;;;5095088;28;20252;-28
2023/07/18 08:04:47;;;;;;;4.30;1.58;;;;;;;;;;5072912;28;20208;-29
2023/07/18 08:07:15;;;;;;;4.35;1.55;;;;;;;;;;5081824;28;20205;-31
2023/07/18 08:09:42;;;;;;;2.33;1.40;;;;;;;;;;5073939;28;20221;-30
2023/07/18 08:12:10;;;;;;;2.65;1.55;;;;;;;;;;5066681;28;20198;-27
2023/07/18 08:14:38;;;;;;;2.67;1.38;;;;;;;;;;5084885;28;20197;-28
2023/07/18 08:17:06;;;;;;;2.08;1.60;;;;;;;;;;5094204;28;20206;-29
2023/07/18 08:19:33;;;;;;;2.75;1.50;;;;;;;;;;5075315;28;20231;-30
2023/07/18 08:22:01;;;;;;;3.00;1.40;;;;;;;;;;5072170;28;20228;-30
2023/07/18 08:24:28;;;;;;;2.88;1.65;;;;;;;;;;5074289;28;20205;-28
2023/07/18 08:26:55;;;;;;;2.88;1.63;;;;;;;;;;5066710;28;20205;-30
2023/07/18 08:29:23;;;;;;;1.65;1.50;;;;;;;;;;5076300;28;20244;-30
2023/07/18 08:31:51;;;;;;;4.07;1.95;;;;;;;;;;5073475;28;20205;-30
2023/07/18 08:34:19;;;;;;;2.30;1.40;;;;;;;;;;5067170;28;21135;-28
2023/07/18 08:36:47;;;;;;;2.47;1.45;;;;;;;;;;5084540;28;20226;-29
2023/07/18 08:39:14;;;;;;;3.95;1.65;;;;;;;;;;5073312;28;20245;-31
2023/07/18 08:41:43;;;;;;;2.25;1.50;;;;;;;;;;5064733;28;20211;-30
2023/07/18 08:44:11;;;;;;;3.40;1.60;;;;;;;;;;5073013;28;20205;-33
2023/07/18 08:46:38;;;;;;;3.17;1.40;;;;;;;;;;5072786;28;20256;-30
2023/07/18 08:49:07;;;;;;;1.75;1.42;;;;;;;;;;5073372;28;20713;-31
2023/07/18 08:51:35;;;;;;;1.58;1.35;;;;;;;;;;5068884;28;20204;-32
2023/07/18 08:54:02;;;;;;;3.03;1.35;;;;;;;;;;5082934;28;20194;-30
2023/07/18 08:58:58;;;;;;;2.40;1.35;;;;;;;;;;5062807;28;20293;-32
2023/07/18 09:01:26;;;;;;;3.58;1.45;;;;;;;;;;5053422;28;20214;-30
2023/07/18 09:03:53;;;;;;;3.20;1.10;;;;;;;;;;5051774;28;20228;-33
2023/07/18 09:06:23;;;;;;;4.38;1.40;;;;;;;;;;5038157;28;20198;-31
2023/07/18 09:08:50;;;;;;;3.80;1.40;;;;;;;;;;5049975;28;20221;-33
2023/07/18 09:11:19;;;;;;;5.22;1.48;;;;;;;;;;5043950;28;20280;-31
2023/07/18 09:13:46;;;;;;;3.42;1.70;;;;;;;;;;5047161;28;20205;-32
2023/07/18 09:16:14;;;;;;;4.45;1.55;;;;;;;;;;5052618;28;20281;-30
2023/07/18 09:18:44;;;;;;;4.05;1.52;;;;;;;;;;5053189;28;20229;-32
2023/07/18 09:21:12;;;;;;;1.63;1.50;;;;;;;;;;5043075;28;20224;-31
2023/07/18 09:23:42;;;;;;;1.67;1.58;;;;;;;;;;5042222;28;20214;-32
2023/07/18 09:26:10;;;;;;;2.45;1.80;;;;;;;;;;5045324;28;20228;-31
2023/07/18 09:28:38;;;;;;;1.75;1.30;;;;;;;;;;5052130;28;20228;-30
2023/07/18 09:31:16;;;;;;;3.17;1.45;;;;;;;;;;5051916;28;20228;-31
2023/07/18 09:33:44;;;;;;;2.90;1.55;;;;;;;;;;5050651;28;20204;-34
2023/07/18 09:36:15;;;;;;;1.50;1.40;;;;;;;;;;5044554;28;20198;-33
2023/07/18 09:38:45;;;;;;;2.75;1.50;;;;;;;;;;5047614;28;20229;-29
2023/07/18 09:41:14;;;;;;;4.10;1.80;;;;;;;;;;5039160;28;20208;-32
2023/07/18 09:43:43;;;;;;;4.85;1.90;;;;;;;;;;5047124;28;20222;-32
2023/07/18 09:46:12;;;;;;;5.70;1.80;;;;;;;;;;5052035;28;20202;-30
2023/07/18 09:48:40;;;;;;;1.75;1.60;;;;;;;;;;5050181;28;20280;-33
2023/07/18 09:51:09;;;;;;;6.57;2.70;;;;;;;;;;5043750;28;20656;-33
2023/07/18 09:53:37;;;;;;;2.70;1.40;;;;;;;;;;5052425;28;20210;-30
2023/07/18 09:56:06;;;;;;;4.63;1.80;;;;;;;;;;5048184;28;20216;-31
2023/07/18 09:58:36;;;;;;;2.10;1.98;;;;;;;;;;5046748;28;20710;-33
2023/07/18 10:01:05;;;;;;;2.20;1.70;;;;;;;;;;5052712;28;20186;-33
2023/07/18 10:03:33;;;;;;;2.92;1.73;;;;;;;;;;5052896;28;20268;-33
2023/07/18 10:06:00;;;;;;;3.55;2.10;;;;;;;;;;5047076;28;20222;-35
2023/07/18 10:08:27;;;;;;;3.22;1.98;;;;;;;;;;5046796;28;20222;-31
2023/07/18 10:11:02;;;;;;;2.80;1.90;;;;;;;;;;5046765;28;20198;-30
2023/07/18 10:13:32;;;;;;;3.92;2.10;;;;;;;;;;5042187;28;20288;-34
2023/07/18 10:16:14;;;;;;;3.40;1.98;;;;;;;;;;5052458;28;20197;-31
2023/07/18 10:18:44;;;;;;;3.65;2.50;;;;;;;;;;5043590;28;20233;-31
2023/07/18 10:21:13;;;;;;;5.40;2.20;;;;;;;;;;5050668;28;20209;-34
2023/07/18 10:23:41;;;;;;;2.95;1.70;;;;;;;;;;5052037;28;20259;-32
2023/07/18 10:26:08;;;;;;;3.50;2.20;;;;;;;;;;5045828;28;20229;-29
2023/07/18 10:28:47;;;;;;;3.20;2.20;;;;;;;;;;5046374;28;20231;-30
2023/07/18 10:31:30;;;;;;;2.63;2.30;;;;;;;;;;5052218;28;20201;-31
2023/07/18 10:34:07;;;;;;;3.10;2.10;;;;;;;;;;5050602;28;20304;-32
2023/07/18 10:36:35;;;;;;;2.78;2.00;;;;;;;;;;5049285;28;20283;-30
2023/07/18 10:39:07;;;;;;;3.33;2.10;;;;;;;;;;5055739;28;20234;-30
2023/07/18 10:41:34;;;;;;;3.97;2.58;;;;;;;;;;5049734;28;20288;-32
2023/07/18 10:44:03;;;;;;;2.40;2.20;;;;;;;;;;5054125;28;20258;-31
2023/07/18 10:46:36;;;;;;;3.60;2.03;;;;;;;;;;5047070;28;20589;-35
2023/07/18 10:49:03;;;;;;;2.50;2.17;;;;;;;;;;5044584;28;20221;-32
2023/07/18 10:51:31;;;;;;;3.58;2.47;;;;;;;;;;5055348;28;20210;-34
2023/07/18 10:53:58;;;;;;;6.18;2.20;;;;;;;;;;5054234;28;20201;-31
2023/07/18 10:56:26;;;;;;;4.32;2.22;;;;;;;;;;5042782;28;20208;-32
2023/07/18 10:58:53;;;;;;;5.95;2.35;;;;;;;;;;5053730;28;20240;-34
2023/07/18 11:01:22;;;;;;;3.05;2.00;;;;;;;;;;5048466;28;20296;-31
2023/07/18 11:03:49;;;;;;;2.53;2.20;;;;;;;;;;5056162;28;20243;-33
2023/07/18 11:06:16;;;;;;;2.53;2.33;;;;;;;;;;5048514;28;20205;-32
2023/07/18 11:08:45;;;;;;;5.93;2.08;;;;;;;;;;5055073;28;20221;-30
2023/07/18 11:11:14;;;;;;;1.92;1.80;;;;;;;;;;5046949;28;20238;-34
2023/07/18 11:13:43;;;;;;;2.58;2.38;;;;;;;;;;5047668;28;20201;-30
2023/07/18 11:16:11;;;;;;;3.95;2.22;;;;;;;;;;5046831;28;20201;-34
2023/07/18 11:18:40;;;;;;;2.92;2.45;;;;;;;;;;5051054;28;20225;-31
2023/07/18 11:21:07;;;;;;;4.72;2.10;;;;;;;;;;5054873;28;20230;-31
2023/07/18 11:23:36;;;;;;;2.58;1.88;;;;;;;;;;5055282;28;20228;-33
2023/07/18 11:26:10;;;;;;;2.63;2.35;;;;;;;;;;5047310;28;20212;-33
2023/07/18 11:28:45;;;;;;;3.60;1.90;;;;;;;;;;5053797;28;20224;-35
2023/07/18 11:31:25;;;;;;;3.67;2.10;;;;;;;;;;5054555;28;20198;-32
2023/07/18 11:33:54;;;;;;;4.65;2.47;;;;;;;;;;5051079;28;20201;-33
2023/07/18 11:36:24;;;;;;;2.78;2.20;;;;;;;;;;5046506;28;20205;-33
2023/07/18 11:39:00;;;;;;;5.10;2.45;;;;;;;;;;5047548;28;20236;-34
2023/07/18 11:41:34;;;;;;;4.15;2.25;;;;;;;;;;5048485;28;20238;-32
2023/07/18 11:44:02;;;;;;;4.65;2.47;;;;;;;;;;5052285;28;20236;-31
2023/07/18 11:46:36;;;;;;;2.58;2.35;;;;;;;;;;5053773;28;20211;-29
2023/07/18 11:49:04;;;;;;;6.25;2.80;;;;;;;;;;5049975;28;20231;-31
2023/07/18 11:51:32;;;;;;;4.32;2.80;;;;;;;;;;5049246;28;20211;-31
2023/07/18 11:53:59;;;;;;;3.33;2.72;;;;;;;;;;5054581;28;20203;-32
2023/07/18 11:56:26;;;;;;;3.75;2.25;;;;;;;;;;5042965;28;20206;-34
2023/07/18 11:58:53;;;;;;;3.63;2.40;;;;;;;;;;5051673;28;20706;-33
2023/07/18 12:01:20;;;;;;;3.88;2.42;;;;;;;;;;5054031;28;20200;-32
2023/07/18 12:03:47;;;;;;;3.28;2.40;;;;;;;;;;5047900;28;20224;-33
2023/07/18 12:06:16;;;;;;;3.92;2.25;;;;;;;;;;5053302;28;20222;-29
2023/07/18 12:08:43;;;;;;;3.95;2.47;;;;;;;;;;5053483;28;20225;-33
2023/07/18 12:11:10;;;;;;;2.60;2.35;;;;;;;;;;5046588;28;20209;-30
2023/07/18 12:13:37;;;;;;;4.47;2.60;;;;;;;;;;5048195;28;20544;-33
2023/07/18 12:16:05;;;;;;;2.88;2.25;;;;;;;;;;5052366;28;20209;-34
2023/07/18 12:18:32;;;;;;;2.95;2.40;;;;;;;;;;5051376;28;20220;-30
2023/07/18 12:20:59;;;;;;;3.55;2.63;;;;;;;;;;5049617;28;20232;-34
2023/07/18 12:23:28;;;;;;;3.47;2.50;;;;;;;;;;5053095;28;20220;-33
2023/07/18 12:25:55;;;;;;;4.35;2.60;;;;;;;;;;5045382;28;20205;-30
2023/07/18 12:28:22;;;;;;;4.88;2.50;;;;;;;;;;5043211;28;20228;-33
2023/07/18 12:30:49;;;;;;;4.70;2.70;;;;;;;;;;5053709;28;20203;-31
2023/07/18 12:33:16;;;;;;;4.57;2.80;;;;;;;;;;5054039;28;20271;-32
2023/07/18 12:35:43;;;;;;;3.55;2.38;;;;;;;;;;5044415;28;20212;-33
2023/07/18 12:38:11;;;;;;;4.97;2.40;;;;;;;;;;5045263;28;20209;-31
2023/07/18 12:40:40;;;;;;;2.50;2.10;;;;;;;;;;5050637;28;20210;-33
2023/07/18 12:43:07;;;;;;;4.13;2.40;;;;;;;;;;5048554;28;20255;-34
2023/07/18 12:45:34;;;;;;;3.05;2.40;;;;;;;;;;5053370;28;20204;-29
2023/07/18 12:48:02;;;;;;;3.70;2.30;;;;;;;;;;5053369;28;20201;-34
2023/07/18 12:50:30;;;;;;;3.42;2.40;;;;;;;;;;5046238;28;20198;-31
2023/07/18 12:52:58;;;;;;;4.45;2.67;;;;;;;;;;5035004;28;20296;-30
2023/07/18 12:55:26;;;;;;;3.85;2.28;;;;;;;;;;5049759;28;20234;-30
2023/07/18 12:57:55;;;;;;;2.95;2.53;;;;;;;;;;5042284;28;20216;-30
2023/07/18 13:00:22;;;;;;;2.80;2.50;;;;;;;;;;5048543;28;20225;-34
2023/07/18 13:02:49;;;;;;;3.67;2.50;;;;;;;;;;5045073;28;20210;-32
2023/07/18 13:05:16;;;;;;;4.63;2.22;;;;;;;;;;5052105;28;20216;-33
2023/07/18 13:07:44;;;;;;;4.10;2.47;;;;;;;;;;5052713;28;20227;-32
2023/07/18 13:10:11;;;;;;;3.22;2.28;;;;;;;;;;5050448;28;20240;-31
2023/07/18 13:12:38;;;;;;;3.28;2.63;;;;;;;;;;5046415;28;20556;-33
2023/07/18 13:15:07;;;;;;;4.70;2.10;;;;;;;;;;5051783;28;20204;-30
2023/07/18 13:17:34;;;;;;;4.55;2.22;;;;;;;;;;5052293;28;20213;-32
2023/07/18 13:20:01;;;;;;;5.68;2.55;;;;;;;;;;5049264;28;20312;-33
2023/07/18 13:22:28;;;;;;;6.15;2.55;;;;;;;;;;5046838;28;20343;-34
2023/07/18 13:24:56;;;;;;;2.83;2.40;;;;;;;;;;5052338;28;20225;-35
2023/07/18 13:27:23;;;;;;;3.38;2.45;;;;;;;;;;5046207;28;20217;-33
2023/07/18 13:29:50;;;;;;;2.30;2.10;;;;;;;;;;5053755;28;20224;-33
2023/07/18 13:32:19;;;;;;;5.00;2.50;;;;;;;;;;5054035;28;20210;-30
2023/07/18 13:34:46;;;;;;;5.45;2.13;;;;;;;;;;5042371;28;20202;-31
2023/07/18 13:37:13;;;;;;;5.38;2.42;;;;;;;;;;5045885;28;20202;-32
2023/07/18 13:39:40;;;;;;;2.55;2.30;;;;;;;;;;5053034;28;20221;-34
2023/07/18 13:42:08;;;;;;;4.90;2.30;;;;;;;;;;5040999;28;20303;-33
2023/07/18 13:44:35;;;;;;;4.22;2.42;;;;;;;;;;5049271;28;20228;-33
2023/07/18 13:47:02;;;;;;;5.13;2.50;;;;;;;;;;5049790;28;20199;-33
2023/07/18 13:49:31;;;;;;;8.00;2.60;;;;;;;;;;5050245;28;20216;-30
2023/07/18 13:51:58;;;;;;;3.75;2.60;;;;;;;;;;5040987;28;20207;-32
2023/07/18 13:54:26;;;;;;;3.55;2.33;;;;;;;;;;5051623;28;20204;-34
2023/07/18 13:56:56;;;;;;;2.75;2.53;;;;;;;;;;5044547;28;20225;-30
2023/07/18 13:59:23;;;;;;;3.53;2.45;;;;;;;;;;5047850;28;20229;-32
2023/07/18 14:01:50;;;;;;;5.22;2.92;;;;;;;;;;5044478;28;20221;-32
2023/07/18 14:04:17;;;;;;;3.58;2.55;;;;;;;;;;5051915;28;20225;-32
2023/07/18 14:06:46;;;;;;;5.63;2.60;;;;;;;;;;5050393;28;20205;-33
2023/07/18 14:09:13;;;;;;;5.30;2.40;;;;;;;;;;5040479;28;20229;-33
2023/07/18 14:11:40;;;;;;;5.05;2.75;;;;;;;;;;5038148;28;20296;-33
2023/07/18 14:14:08;;;;;;;4.95;2.90;;;;;;;;;;5051584;28;20232;-31
2023/07/18 14:16:35;;;;;;;3.53;2.33;;;;;;;;;;5052070;28;20239;-31
2023/07/18 14:19:03;;;;;;;3.40;2.65;;;;;;;;;;5049625;28;20827;-31
2023/07/18 14:21:31;;;;;;;4.97;2.70;;;;;;;;;;5032805;28;20213;-32
2023/07/18 14:24:02;;;;;;;2.75;2.53;;;;;;;;;;5050521;28;20218;-33
2023/07/18 14:26:29;;;;;;;5.45;2.50;;;;;;;;;;5041973;28;20210;-35
2023/07/18 14:28:56;;;;;;;5.80;2.58;;;;;;;;;;5043523;28;20312;-31
2023/07/18 14:31:23;;;;;;;3.78;2.45;;;;;;;;;;5050128;28;20211;-31
2023/07/18 14:33:50;;;;;;;4.18;2.72;;;;;;;;;;5052504;28;20204;-33
2023/07/18 14:36:18;;;;;;;5.00;2.80;;;;;;;;;;5052115;28;20209;-31
2023/07/18 14:38:45;;;;;;;4.30;2.60;;;;;;;;;;5043903;28;20248;-30
2023/07/18 14:41:16;;;;;;;10.20;2.38;;;;;;;;;;5037403;28;20209;-30
2023/07/18 14:43:43;;;;;;;2.95;2.17;;;;;;;;;;5052063;28;20211;-34
2023/07/18 14:46:10;;;;;;;6.03;2.90;;;;;;;;;;5043556;28;20212;-30
2023/07/18 14:48:37;;;;;;;3.80;2.40;;;;;;;;;;5051574;28;20225;-33
2023/07/18 14:51:04;;;;;;;5.15;2.55;;;;;;;;;;5045948;28;20207;-32